Jiaonan, China
Current Conditions -  °F | °C
As of 11:00 PM on Thursday 23 Oct 2014 (Local Time) from ZSQD Reporting Station
Haze Haze  
Wind Chill: 63°   Ceiling: Unl
Heat Index: 63°   Visibility: 1.8mi
Dew Point: 57°   Wind: 9mph
Humidity: 82%   Direction: 180°S
Pressure: 30.03"   Gusts: NA
Location:  35.88°N, 119.96°E
Report Text: ZSQD 231500Z 18004MPS 3000 BR NSC 17/14 Q1017 BECMG TL16302500BR
Loading
Personal Weather Stations






























Interactive Weather Map New forecast layout! Learn more

10-Day Weather Forecast

Advertisements
Track Severe Weather on mobile